Time;durP1;ratioP1;P1;durP2;ratioP2;P2;SDS_P1;SDS_P2;PMS_P1;PMS_P2;Temp;Humidity;BMP_temperature;BMP_pressure;BME280_temperature;BME280_humidity;BME280_pressure;Samples;Min_cycle;Max_cycle;Signal;HPM_P1;HPM_P2
2023/12/09 00:01:44;;;;;;;65.78;32.75;;;;;;;1.52;100.00;100352.66;4980665;28;20476;-76
2023/12/09 00:04:09;;;;;;;71.63;33.50;;;;;;;1.52;100.00;100360.31;4979539;28;20046;-75
2023/12/09 00:06:35;;;;;;;60.85;30.75;;;;;;;1.47;100.00;100362.41;4979918;28;20085;-78
2023/12/09 00:09:03;;;;;;;59.92;30.73;;;;;;;1.50;100.00;100357.94;4980586;28;20127;-74
2023/12/09 00:11:28;;;;;;;66.45;32.33;;;;;;;1.49;100.00;100353.53;4979262;28;20101;-77
2023/12/09 00:13:56;;;;;;;65.40;30.85;;;;;;;1.52;100.00;100355.47;4980400;28;20461;-75
2023/12/09 00:16:22;;;;;;;69.05;31.15;;;;;;;1.50;100.00;100359.97;4980710;28;20066;-77
2023/12/09 00:18:56;;;;;;;63.63;31.17;;;;;;;1.52;100.00;100360.31;4980521;28;20031;-76
2023/12/09 00:21:26;;;;;;;63.72;30.58;;;;;;;1.58;100.00;100359.41;4980639;28;20073;-76
2023/12/09 00:23:53;;;;;;;57.72;30.23;;;;;;;1.62;100.00;100351.69;4980591;28;20042;-76
2023/12/09 00:26:18;;;;;;;67.25;32.53;;;;;;;1.67;100.00;100353.19;4980510;28;20077;-76
2023/12/09 00:28:52;;;;;;;67.82;32.38;;;;;;;1.72;100.00;100355.53;4979888;28;20049;-75
2023/12/09 00:31:17;;;;;;;68.45;34.55;;;;;;;1.69;100.00;100353.56;4980687;28;20022;-76
2023/12/09 00:33:45;;;;;;;70.53;34.50;;;;;;;1.64;100.00;100354.88;4980519;28;20433;-75
2023/12/09 00:36:10;;;;;;;76.50;34.97;;;;;;;1.62;100.00;100348.88;4980564;28;20049;-76
2023/12/09 00:38:37;;;;;;;75.10;35.17;;;;;;;1.64;100.00;100354.88;4980539;28;20045;-75
2023/12/09 00:41:02;;;;;;;69.68;34.10;;;;;;;1.67;100.00;100356.00;4978333;28;20066;-75
2023/12/09 00:43:28;;;;;;;70.07;35.70;;;;;;;1.74;100.00;100355.91;4979299;28;20089;-76
2023/12/09 00:45:55;;;;;;;71.25;34.50;;;;;;;1.79;100.00;100356.19;4979701;28;20035;-75
2023/12/09 00:48:22;;;;;;;69.68;33.05;;;;;;;1.86;100.00;100358.06;4979987;28;20110;-77
2023/12/09 00:50:48;;;;;;;75.68;35.05;;;;;;;1.89;100.00;100357.22;4980579;28;20038;-77
2023/12/09 00:53:16;;;;;;;72.40;35.22;;;;;;;1.92;100.00;100371.22;4979126;28;20034;-75
2023/12/09 00:55:44;;;;;;;68.30;34.70;;;;;;;1.98;100.00;100362.28;4995191;28;20062;-77
2023/12/09 00:58:10;;;;;;;73.30;36.13;;;;;;;2.02;100.00;100371.44;4976616;28;20031;-77
2023/12/09 01:00:43;;;;;;;73.70;35.42;;;;;;;2.04;100.00;100374.63;4979638;28;20447;-74
2023/12/09 01:03:08;;;;;;;80.68;37.55;;;;;;;2.06;100.00;100380.63;5016239;28;20041;-74
2023/12/09 01:05:36;;;;;;;90.88;40.67;;;;;;;2.05;100.00;100373.38;5014880;28;20034;-75
2023/12/09 01:08:03;;;;;;;112.85;50.40;;;;;;;2.08;100.00;100378.16;5016158;28;20034;-76
2023/12/09 01:10:31;;;;;;;126.55;53.72;;;;;;;2.05;100.00;100371.38;5015907;28;20029;-75
2023/12/09 01:12:57;;;;;;;123.15;52.00;;;;;;;2.05;100.00;100373.38;5015528;28;20064;-77
2023/12/09 01:15:24;;;;;;;119.25;53.45;;;;;;;2.02;100.00;100377.06;5016127;28;20036;-76
2023/12/09 01:17:50;;;;;;;144.55;61.60;;;;;;;2.00;100.00;100377.50;5015927;28;20061;-75
2023/12/09 01:20:24;;;;;;;120.68;53.03;;;;;;;2.02;100.00;100380.69;5015831;28;20456;-77
2023/12/09 01:22:51;;;;;;;111.63;49.28;;;;;;;2.02;100.00;100377.88;5015963;28;20057;-76
2023/12/09 01:25:18;;;;;;;98.90;43.63;;;;;;;1.99;100.00;100378.75;5014600;28;20034;-76
2023/12/09 01:27:45;;;;;;;98.03;47.83;;;;;;;2.01;100.00;100381.91;5015905;28;20018;-76
2023/12/09 01:30:11;;;;;;;89.30;44.22;;;;;;;2.02;100.00;100383.50;5015847;28;20026;-75
2023/12/09 01:32:37;;;;;;;84.35;42.30;;;;;;;2.06;100.00;100383.44;5015738;28;20026;-76
2023/12/09 01:35:04;;;;;;;82.68;40.65;;;;;;;2.09;100.00;100386.19;5015534;28;20528;-76
2023/12/09 01:37:30;;;;;;;81.68;39.38;;;;;;;2.12;100.00;100385.31;5015698;28;20025;-77
2023/12/09 01:39:58;;;;;;;68.20;32.58;;;;;;;2.14;100.00;100382.88;5015386;28;20144;-78
2023/12/09 01:42:24;;;;;;;66.85;31.15;;;;;;;2.17;100.00;100386.84;5015628;28;20464;-75
2023/12/09 01:44:51;;;;;;;57.65;28.80;;;;;;;2.19;100.00;100384.41;5015654;28;20022;-76
2023/12/09 01:47:17;;;;;;;51.53;25.13;;;;;;;2.21;100.00;100370.66;5015560;28;20037;-76
2023/12/09 01:49:45;;;;;;;44.00;22.67;;;;;;;2.24;100.00;100369.78;5014044;28;20025;-76
2023/12/09 01:52:10;;;;;;;43.75;20.40;;;;;;;2.27;100.00;100375.34;5014330;28;20149;-76
2023/12/09 01:54:38;;;;;;;31.13;18.58;;;;;;;2.29;100.00;100370.06;5014115;28;20486;-75
2023/12/09 01:57:04;;;;;;;30.83;17.13;;;;;;;2.32;100.00;100377.66;5012112;28;20061;-76
2023/12/09 01:59:31;;;;;;;33.70;17.55;;;;;;;2.32;100.00;100379.69;5015376;28;20121;-76
2023/12/09 02:01:58;;;;;;;34.40;17.90;;;;;;;2.33;100.00;100367.19;5013651;28;20048;-74
2023/12/09 02:04:26;;;;;;;35.58;18.33;;;;;;;2.33;100.00;100379.25;5013630;28;20399;-76
2023/12/09 02:06:53;;;;;;;32.67;16.88;;;;;;;2.28;100.00;100371.31;5014996;28;20032;-76
2023/12/09 02:09:19;;;;;;;34.92;17.23;;;;;;;2.28;100.00;100370.50;5014684;28;20056;-78
2023/12/09 02:12:21;;;;;;;30.65;16.33;;;;;;;2.26;100.00;100373.75;5013172;28;20034;-77
2023/12/09 02:15:06;;;;;;;35.03;16.80;;;;;;;2.26;100.00;100387.06;5011207;28;20069;-75
2023/12/09 02:18:02;;;;;;;35.13;18.00;;;;;;;2.24;100.00;100372.63;5014606;28;20046;-76
2023/12/09 02:20:29;;;;;;;32.95;17.30;;;;;;;2.25;100.00;100374.19;5014722;28;20034;-76
2023/12/09 02:23:13;;;;;;;34.58;17.35;;;;;;;2.24;100.00;100370.56;5014577;28;20088;-75
2023/12/09 02:25:40;;;;;;;32.08;16.70;;;;;;;2.26;100.00;100372.97;5014797;28;20026;-77
2023/12/09 02:28:16;;;;;;;35.72;17.70;;;;;;;2.25;100.00;100366.53;5013755;28;20383;-76
2023/12/09 02:31:15;;;;;;;30.92;17.50;;;;;;;2.23;100.00;100371.81;5013419;28;20460;-76
2023/12/09 02:33:43;;;;;;;35.03;17.23;;;;;;;2.23;100.00;100371.81;5025722;28;20617;-76
2023/12/09 02:36:24;;;;;;;36.42;17.85;;;;;;;2.25;100.00;100371.38;4997004;28;20058;-76
2023/12/09 02:38:59;;;;;;;36.35;18.77;;;;;;;2.24;100.00;100369.78;5013300;28;20033;-77
2023/12/09 02:41:26;;;;;;;34.92;18.83;;;;;;;2.28;100.00;100373.34;5013079;28;20029;-74
2023/12/09 02:43:55;;;;;;;31.67;17.02;;;;;;;2.21;100.00;100373.47;4996640;28;20038;-78
2023/12/09 02:46:25;;;;;;;31.85;16.73;;;;;;;2.19;100.00;100367.47;5014190;28;20049;-78
2023/12/09 02:49:00;;;;;;;35.58;16.40;;;;;;;2.18;100.00;100374.34;5013314;28;20111;-76
2023/12/09 02:51:26;;;;;;;32.25;16.55;;;;;;;2.15;100.00;100373.16;5013251;28;20352;-75
2023/12/09 02:53:54;;;;;;;33.60;18.38;;;;;;;2.16;100.00;100379.59;5012797;28;20045;-74
2023/12/09 02:56:21;;;;;;;33.78;17.13;;;;;;;2.15;100.00;100378.00;5013878;28;20026;-76
2023/12/09 02:58:46;;;;;;;33.30;16.73;;;;;;;2.10;100.00;100376.50;5012814;28;20076;-76
2023/12/09 03:01:12;;;;;;;32.88;16.40;;;;;;;2.07;100.00;100376.56;5014126;28;20462;-76
2023/12/09 03:03:38;;;;;;;35.60;16.77;;;;;;;2.06;100.00;100378.59;5012872;28;20080;-76
2023/12/09 03:06:04;;;;;;;30.92;15.55;;;;;;;2.09;100.00;100374.13;5013499;28;20036;-75
2023/12/09 03:08:31;;;;;;;33.45;17.60;;;;;;;2.09;100.00;100377.75;5013484;28;20372;-75
2023/12/09 03:10:56;;;;;;;32.22;15.80;;;;;;;2.07;100.00;100376.56;5013606;28;20030;-75
2023/12/09 03:13:23;;;;;;;33.28;17.42;;;;;;;2.07;100.00;100377.38;5013398;28;20505;-76
2023/12/09 03:15:48;;;;;;;31.27;17.38;;;;;;;2.06;100.00;100381.41;5012721;28;20030;-76
2023/12/09 03:18:16;;;;;;;34.53;16.67;;;;;;;2.07;100.00;100387.84;5012400;28;20475;-76
2023/12/09 03:20:44;;;;;;;31.38;17.30;;;;;;;2.06;100.00;100384.22;5013250;28;20053;-76
2023/12/09 03:23:09;;;;;;;34.45;16.83;;;;;;;2.09;100.00;100374.13;5012550;28;20550;-76
2023/12/09 03:25:35;;;;;;;31.27;17.25;;;;;;;2.08;100.00;100372.53;4995636;28;20061;-76
2023/12/09 03:28:00;;;;;;;30.33;16.58;;;;;;;2.08;100.00;100375.34;5012092;28;20057;-76
2023/12/09 03:30:25;;;;;;;31.60;16.50;;;;;;;2.04;100.00;100366.97;5012305;28;20034;-75
2023/12/09 03:32:52;;;;;;;35.13;17.42;;;;;;;2.09;100.00;100366.47;5013526;28;20048;-77
2023/12/09 03:35:20;;;;;;;32.85;17.58;;;;;;;2.09;100.00;100363.66;5012085;28;20022;-75
2023/12/09 03:37:54;;;;;;;36.03;16.75;;;;;;;2.09;100.00;100366.47;5013424;28;20040;-75
2023/12/09 03:40:20;;;;;;;33.08;16.63;;;;;;;2.09;100.00;100358.03;5013245;28;20122;-75
2023/12/09 03:42:47;;;;;;;28.20;16.50;;;;;;;2.07;100.00;100363.28;5012944;28;20050;-75
2023/12/09 03:45:14;;;;;;;31.92;15.02;;;;;;;2.06;100.00;100364.50;5013606;28;20056;-76
2023/12/09 03:47:39;;;;;;;35.20;16.05;;;;;;;2.07;100.00;100363.28;5013326;28;20097;-75
2023/12/09 03:50:06;;;;;;;30.55;15.65;;;;;;;2.08;100.00;100369.72;5013237;28;20462;-75
2023/12/09 03:52:34;;;;;;;32.85;16.65;;;;;;;2.08;100.00;100372.53;5013516;28;20020;-75
2023/12/09 03:55:03;;;;;;;29.50;14.25;;;;;;;2.08;100.00;100367.69;5012917;28;20586;-74
2023/12/09 03:57:33;;;;;;;30.48;15.75;;;;;;;2.02;100.00;100366.59;5013412;28;20022;-75
2023/12/09 04:00:06;;;;;;;32.15;16.42;;;;;;;2.01;100.00;100362.19;5013122;28;20463;-76
2023/12/09 04:02:33;;;;;;;30.17;15.80;;;;;;;2.01;100.00;100367.03;5012914;28;20038;-77
2023/12/09 04:05:00;;;;;;;30.10;16.10;;;;;;;2.01;100.00;100359.38;4995478;28;20140;-76
2023/12/09 04:07:34;;;;;;;30.58;16.98;;;;;;;2.05;100.00;100362.91;5011794;28;20026;-76
2023/12/09 04:10:14;;;;;;;33.08;15.52;;;;;;;2.08;100.00;100364.88;5013143;28;20030;-75
2023/12/09 04:12:40;;;;;;;30.27;15.40;;;;;;;2.08;100.00;100362.06;5012686;28;20077;-77
2023/12/09 04:15:08;;;;;;;28.52;16.10;;;;;;;2.10;100.00;100361.59;4993274;28;20080;-76
2023/12/09 04:17:34;;;;;;;31.38;16.40;;;;;;;2.08;100.00;100364.88;5011550;28;20022;-76
2023/12/09 04:20:00;;;;;;;32.28;16.00;;;;;;;2.09;100.00;100354.41;5012989;28;20116;-75
2023/12/09 04:22:27;;;;;;;32.03;15.55;;;;;;;2.10;100.00;100353.16;5012919;28;20483;-76
2023/12/09 04:24:53;;;;;;;31.00;15.48;;;;;;;2.06;100.00;100350.41;5012954;28;20057;-76
2023/12/09 04:27:19;;;;;;;31.20;15.45;;;;;;;2.06;100.00;100346.78;5011712;28;20443;-75
2023/12/09 04:29:46;;;;;;;29.88;15.32;;;;;;;2.11;100.00;100354.75;5012112;28;20454;-74
2023/12/09 04:32:30;;;;;;;28.85;14.52;;;;;;;2.06;100.00;100349.63;5014000;28;20028;-74
2023/12/09 04:35:10;;;;;;;31.48;15.32;;;;;;;2.15;100.00;100361.91;5016721;28;20034;-75
2023/12/09 04:37:37;;;;;;;26.90;13.77;;;;;;;2.12;100.00;100357.13;5016670;28;20026;-76
2023/12/09 04:40:05;;;;;;;27.65;13.85;;;;;;;2.12;100.00;100359.97;5016409;28;20052;-75
2023/12/09 04:42:30;;;;;;;25.92;15.13;;;;;;;2.12;100.00;100359.97;5015099;28;20080;-76
2023/12/09 04:44:56;;;;;;;27.20;14.23;;;;;;;2.10;100.00;100367.25;4998992;28;20049;-78
2023/12/09 04:47:22;;;;;;;27.40;14.45;;;;;;;2.09;100.00;100365.69;5014566;28;20125;-77
2023/12/09 04:49:48;;;;;;;26.77;14.48;;;;;;;2.13;100.00;100358.75;4998731;28;20045;-76
2023/12/09 04:52:15;;;;;;;27.00;14.30;;;;;;;2.07;100.00;100360.47;5016448;28;20486;-75
2023/12/09 04:54:41;;;;;;;28.48;14.68;;;;;;;2.14;100.00;100356.72;5016332;28;20033;-76
2023/12/09 04:57:06;;;;;;;29.17;15.07;;;;;;;2.16;100.00;100357.06;5016193;28;20360;-76
2023/12/09 04:59:31;;;;;;;27.23;14.43;;;;;;;2.16;100.00;100354.25;5015749;28;20029;-75
2023/12/09 05:01:58;;;;;;;32.33;14.63;;;;;;;2.13;100.00;100339.00;5014137;28;20394;-76
2023/12/09 05:04:24;;;;;;;27.27;14.65;;;;;;;2.15;100.00;100347.81;5016244;28;20491;-75
2023/12/09 05:06:51;;;;;;;29.75;13.90;;;;;;;2.11;100.00;100343.47;5016093;28;20030;-76
2023/12/09 05:09:16;;;;;;;25.42;13.80;;;;;;;2.16;100.00;100351.41;5016094;28;20025;-76
2023/12/09 05:11:41;;;;;;;29.75;15.02;;;;;;;2.16;100.00;100355.03;5014300;28;20073;-75
2023/12/09 05:14:07;;;;;;;29.80;14.98;;;;;;;2.16;100.00;100355.03;5031024;28;20029;-75
2023/12/09 05:16:33;;;;;;;26.00;13.88;;;;;;;2.17;100.00;100351.00;5016085;28;20460;-76
2023/12/09 05:18:58;;;;;;;30.90;16.23;;;;;;;2.10;100.00;100337.03;5016305;28;20096;-76
2023/12/09 05:21:25;;;;;;;30.65;14.55;;;;;;;2.22;100.00;100349.69;5015948;28;20134;-75
2023/12/09 05:23:51;;;;;;;24.83;13.95;;;;;;;2.16;100.00;100357.84;5016037;28;20030;-74
2023/12/09 05:26:26;;;;;;;31.55;14.52;;;;;;;2.15;100.00;100355.47;5013375;28;20041;-76
2023/12/09 05:28:53;;;;;;;28.27;14.70;;;;;;;2.12;100.00;100350.72;5014842;28;20042;-77
2023/12/09 05:31:21;;;;;;;24.55;14.13;;;;;;;2.13;100.00;100347.47;5016104;28;20025;-76
2023/12/09 05:33:47;;;;;;;29.15;15.27;;;;;;;2.15;100.00;100353.44;4998162;28;20125;-77
2023/12/09 05:36:13;;;;;;;34.78;15.02;;;;;;;2.13;100.00;100350.28;5014361;28;20428;-76
2023/12/09 05:38:43;;;;;;;30.17;14.85;;;;;;;2.14;100.00;100354.69;5018165;28;20037;-79
2023/12/09 05:41:09;;;;;;;27.50;14.65;;;;;;;2.13;100.00;100355.13;5034908;28;20136;-79
2023/12/09 05:43:39;;;;;;;39.33;15.38;;;;;;;2.15;100.00;100356.25;5013909;28;20108;-73
2023/12/09 05:46:07;;;;;;;31.70;15.75;;;;;;;2.18;100.00;100358.22;5015560;28;20030;-75
2023/12/09 05:48:36;;;;;;;28.85;15.30;;;;;;;2.20;100.00;100355.75;5015139;28;20077;-75
2023/12/09 05:51:03;;;;;;;27.58;15.07;;;;;;;2.22;100.00;100358.94;5015162;28;20064;-75
2023/12/09 05:53:31;;;;;;;31.63;16.73;;;;;;;2.25;100.00;100357.25;5015115;28;20447;-74
2023/12/09 05:56:05;;;;;;;27.77;15.07;;;;;;;2.24;100.00;100358.53;5015202;28;20039;-75
2023/12/09 05:58:32;;;;;;;28.85;16.10;;;;;;;2.25;100.00;100354.44;5013834;28;20038;-76
2023/12/09 06:01:00;;;;;;;29.20;16.35;;;;;;;2.29;100.00;100353.16;5015084;28;20034;-74
2023/12/09 06:03:28;;;;;;;28.50;16.17;;;;;;;2.27;100.00;100352.00;5015105;28;20029;-73
2023/12/09 06:05:57;;;;;;;30.05;15.57;;;;;;;2.27;100.00;100352.81;5014848;28;20509;-76
2023/12/09 06:08:23;;;;;;;26.42;14.55;;;;;;;2.28;100.00;100353.59;5014775;28;20068;-75
2023/12/09 06:10:51;;;;;;;31.08;15.57;;;;;;;2.29;100.00;100352.38;5013485;28;20021;-75
2023/12/09 06:13:17;;;;;;;31.00;15.77;;;;;;;2.29;100.00;100353.16;5013288;28;20495;-75
2023/12/09 06:15:42;;;;;;;29.65;16.38;;;;;;;2.30;100.00;100351.91;5014725;28;20049;-76
2023/12/09 06:18:10;;;;;;;31.90;15.45;;;;;;;2.32;100.00;100354.31;5013639;28;20129;-75
2023/12/09 06:20:35;;;;;;;31.75;17.02;;;;;;;2.29;100.00;100353.16;5014953;28;20034;-76
2023/12/09 06:23:01;;;;;;;32.47;17.98;;;;;;;2.28;100.00;100356.41;5010806;28;20130;-75
2023/12/09 06:25:30;;;;;;;33.17;17.20;;;;;;;2.31;100.00;100361.16;5013129;28;20030;-76
2023/12/09 06:27:56;;;;;;;32.53;17.08;;;;;;;2.31;100.00;100359.16;5013478;28;20030;-76
2023/12/09 06:30:23;;;;;;;32.88;17.40;;;;;;;2.35;100.00;100359.06;5013628;28;20540;-73
2023/12/09 06:32:49;;;;;;;36.63;18.73;;;;;;;2.39;100.00;100371.06;5014757;28;20490;-77
2023/12/09 06:35:16;;;;;;;38.72;18.15;;;;;;;2.41;100.00;100368.63;5014582;28;20030;-79
2023/12/09 06:37:44;;;;;;;40.55;18.23;;;;;;;2.43;100.00;100368.97;5013271;28;20037;-78
2023/12/09 06:40:11;;;;;;;38.72;18.65;;;;;;;2.46;100.00;100367.31;5013647;28;20053;-78
2023/12/09 06:42:38;;;;;;;39.67;17.85;;;;;;;2.50;100.00;100366.00;5019999;28;20033;-78
2023/12/09 06:45:05;;;;;;;31.83;17.02;;;;;;;2.52;100.00;100368.38;5019327;28;20459;-79
2023/12/09 06:47:32;;;;;;;32.58;15.60;;;;;;;2.56;100.00;100371.91;5019651;28;20029;-79
2023/12/09 06:50:01;;;;;;;27.25;14.98;;;;;;;2.61;100.00;100377.84;5015166;28;20018;-77
2023/12/09 06:52:26;;;;;;;32.88;15.98;;;;;;;2.59;100.00;100376.69;5016619;28;20057;-78
2023/12/09 06:54:54;;;;;;;29.83;16.02;;;;;;;2.65;100.00;100372.91;5015807;28;20033;-79
2023/12/09 06:57:21;;;;;;;33.05;17.45;;;;;;;2.65;100.00;100374.94;5018531;28;20037;-79
2023/12/09 06:59:49;;;;;;;32.38;17.00;;;;;;;2.63;100.00;100378.22;5016444;28;20034;-80
2023/12/09 07:02:15;;;;;;;33.13;17.90;;;;;;;2.71;100.00;100379.63;5016518;28;20490;-78
2023/12/09 07:04:41;;;;;;;31.55;16.30;;;;;;;2.71;100.00;100376.00;5021400;28;20026;-77
2023/12/09 07:07:08;;;;;;;36.55;18.52;;;;;;;2.69;100.00;100381.28;5024656;28;20068;-78
2023/12/09 07:09:36;;;;;;;36.88;19.27;;;;;;;2.71;100.00;100381.66;5023883;28;20029;-78
2023/12/09 07:12:03;;;;;;;35.10;19.25;;;;;;;2.73;100.00;100376.38;5019652;28;20444;-76
2023/12/09 07:14:31;;;;;;;36.45;18.50;;;;;;;2.76;100.00;100381.13;5021537;28;20036;-78
2023/12/09 07:16:58;;;;;;;38.15;19.33;;;;;;;2.75;100.00;100373.91;5017991;28;20034;-77
2023/12/09 07:19:26;;;;;;;38.85;18.83;;;;;;;2.82;100.00;100375.78;5017339;28;20030;-78
2023/12/09 07:21:54;;;;;;;35.88;20.08;;;;;;;2.87;100.00;100367.59;5019412;28;20030;-80
2023/12/09 07:24:20;;;;;;;40.10;18.77;;;;;;;2.90;100.00;100368.72;5016186;28;20053;-79
2023/12/09 07:26:46;;;;;;;30.23;17.60;;;;;;;2.93;100.00;100368.66;5018595;28;20111;-78
2023/12/09 07:29:12;;;;;;;34.92;17.00;;;;;;;2.91;100.00;100365.47;5013749;28;20033;-78
2023/12/09 07:31:38;;;;;;;32.70;17.20;;;;;;;2.97;100.00;100369.38;5028635;28;20064;-78
2023/12/09 07:34:04;;;;;;;28.75;17.08;;;;;;;3.02;100.00;100368.84;5013680;28;20046;-78
2023/12/09 07:36:30;;;;;;;32.97;17.20;;;;;;;3.04;100.00;100362.75;5012333;28;20029;-79
2023/12/09 07:38:58;;;;;;;32.90;16.63;;;;;;;3.05;100.00;100355.88;5012243;28;20050;-78
2023/12/09 07:41:25;;;;;;;31.88;16.05;;;;;;;3.16;100.00;100356.41;5013581;28;20073;-80
2023/12/09 07:43:50;;;;;;;30.20;15.98;;;;;;;3.19;100.00;100355.50;5013529;28;20083;-78
2023/12/09 07:46:16;;;;;;;38.03;17.17;;;;;;;3.29;100.00;100362.13;5013709;28;20037;-80
2023/12/09 07:48:42;;;;;;;32.60;16.20;;;;;;;3.23;100.00;100364.69;5012189;28;20033;-78
2023/12/09 07:51:09;;;;;;;31.77;16.23;;;;;;;3.22;100.00;100354.66;5013369;28;20102;-78
2023/12/09 07:53:35;;;;;;;32.60;16.83;;;;;;;3.30;100.00;100358.88;5013631;28;20034;-76
2023/12/09 07:56:02;;;;;;;37.72;18.40;;;;;;;3.36;100.00;100359.13;5013449;28;20101;-78
2023/12/09 07:58:31;;;;;;;40.08;19.95;;;;;;;3.37;100.00;100360.72;5012122;28;20464;-78
2023/12/09 08:01:01;;;;;;;39.58;21.10;;;;;;;3.37;100.00;100350.22;5013696;28;20034;-83
2023/12/09 08:03:29;;;;;;;42.08;21.42;;;;;;;3.39;100.00;100359.03;5013701;28;20061;-79
2023/12/09 08:05:56;;;;;;;40.97;21.58;;;;;;;3.42;100.00;100355.34;5014651;28;20026;-79
2023/12/09 08:08:23;;;;;;;42.97;21.13;;;;;;;3.48;100.00;100355.56;5017316;28;20379;-83
2023/12/09 08:10:52;;;;;;;41.50;22.02;;;;;;;3.49;100.00;100357.97;5016484;28;20030;-83
2023/12/09 08:13:17;;;;;;;37.47;20.50;;;;;;;3.54;100.00;100348.97;5011874;28;20187;-83
2023/12/09 08:15:44;;;;;;;36.78;20.35;;;;;;;3.63;100.00;100351.94;4999409;28;20074;-84
2023/12/09 08:18:10;;;;;;;40.63;21.90;;;;;;;3.71;100.00;100352.56;4999108;28;20026;-82
2023/12/09 08:20:38;;;;;;;39.53;22.20;;;;;;;3.77;100.00;100352.81;4997513;28;20044;-81
2023/12/09 08:23:04;;;;;;;41.85;22.45;;;;;;;3.87;100.00;100360.25;5029956;28;20505;-82
2023/12/09 08:25:30;;;;;;;43.22;22.60;;;;;;;3.85;100.00;100340.88;4997558;28;20045;-80
2023/12/09 08:27:57;;;;;;;39.40;22.88;;;;;;;3.93;100.00;100352.78;4997206;28;20030;-81
2023/12/09 08:30:25;;;;;;;44.35;22.65;;;;;;;3.96;100.00;100346.25;4997159;28;20034;-81
2023/12/09 08:32:50;;;;;;;40.90;21.95;;;;;;;4.03;100.00;100346.03;4997221;28;20114;-80
2023/12/09 08:35:16;;;;;;;41.22;22.83;;;;;;;4.00;100.00;100335.63;4997036;28;20117;-79
2023/12/09 08:38:02;;;;;;;41.35;20.80;;;;;;;4.13;100.00;100355.47;4997110;28;20107;-81
2023/12/09 08:40:28;;;;;;;41.67;21.27;;;;;;;4.17;100.00;100344.88;4998185;28;20070;-80
2023/12/09 08:42:53;;;;;;;46.10;24.02;;;;;;;4.20;100.00;100344.75;4996833;28;20070;-80
2023/12/09 08:45:21;;;;;;;43.25;23.25;;;;;;;4.21;100.00;100346.34;4996920;28;20088;-79
2023/12/09 08:47:47;;;;;;;44.03;22.52;;;;;;;4.26;100.00;100334.47;4995059;28;20046;-81
2023/12/09 08:50:13;;;;;;;43.80;22.98;;;;;;;4.33;100.00;100333.47;5011915;28;20030;-80
2023/12/09 08:52:40;;;;;;;42.63;22.48;;;;;;;4.36;100.00;100336.19;4996019;28;20053;-79
2023/12/09 08:55:05;;;;;;;48.42;24.17;;;;;;;4.41;100.00;100344.09;5002631;28;20038;-81
2023/12/09 08:57:32;;;;;;;44.97;23.08;;;;;;;4.50;100.00;100332.94;4996946;28;20494;-80
2023/12/09 08:59:59;;;;;;;44.95;22.45;;;;;;;4.55;100.00;100345.72;4999110;28;20112;-80
2023/12/09 09:02:26;;;;;;;42.65;21.45;;;;;;;4.56;100.00;100352.97;4996847;28;20104;-81
2023/12/09 09:04:54;;;;;;;39.55;20.58;;;;;;;4.51;100.00;100359.97;5028222;28;20065;-77
2023/12/09 09:07:21;;;;;;;44.55;20.60;;;;;;;4.54;100.00;100354.66;4995268;28;20116;-77
2023/12/09 09:09:47;;;;;;;33.33;19.63;;;;;;;4.51;100.00;100340.16;4998106;28;20026;-80
2023/12/09 09:12:15;;;;;;;42.03;21.52;;;;;;;4.60;100.00;100345.16;4999465;28;20101;-83
2023/12/09 09:14:41;;;;;;;32.85;19.88;;;;;;;4.53;100.00;100331.22;4998799;28;20038;-82
2023/12/09 09:17:12;;;;;;;39.10;19.55;;;;;;;4.63;100.00;100343.47;4996268;28;20041;-82
2023/12/09 09:19:37;;;;;;;41.38;19.20;;;;;;;4.62;100.00;100337.00;4995698;28;20487;-82
2023/12/09 09:22:18;;;;;;;31.92;18.73;;;;;;;4.65;100.00;100344.63;4997966;28;20113;-82
2023/12/09 09:24:43;;;;;;;32.17;16.83;;;;;;;4.63;100.00;100340.63;4996744;28;20048;-83
2023/12/09 09:27:10;;;;;;;38.17;17.85;;;;;;;4.66;100.00;100339.75;4997462;28;20495;-84
2023/12/09 09:29:36;;;;;;;30.17;17.42;;;;;;;4.70;100.00;100335.56;4998851;28;20053;-85
2023/12/09 09:32:03;;;;;;;30.77;17.95;;;;;;;4.72;100.00;100327.41;4999747;28;20034;-86
2023/12/09 09:34:30;;;;;;;31.02;17.25;;;;;;;4.73;100.00;100334.66;4998383;28;20476;-83
2023/12/09 09:37:10;;;;;;;33.75;17.05;;;;;;;4.82;100.00;100331.13;4996875;28;20034;-85
2023/12/09 09:39:38;;;;;;;27.95;17.23;;;;;;;4.80;100.00;100322.31;4997107;28;20085;-83
2023/12/09 09:42:11;;;;;;;32.22;16.80;;;;;;;4.89;100.00;100331.72;4998308;28;20029;-85
2023/12/09 09:44:41;;;;;;;29.20;16.92;;;;;;;4.93;100.00;100329.56;4999420;28;20030;-85
2023/12/09 09:47:09;;;;;;;31.65;18.10;;;;;;;5.01;100.00;100321.59;5012948;28;20585;-84
2023/12/09 09:49:37;;;;;;;33.08;16.88;;;;;;;5.11;100.00;100322.50;5030714;28;20049;-86
2023/12/09 09:52:07;;;;;;;32.13;18.48;;;;;;;5.16;100.00;100330.44;4998656;28;20025;-85
2023/12/09 09:54:53;;;;;;;31.25;17.77;;;;;;;5.25;100.00;100322.81;4995136;28;20041;-85
2023/12/09 09:57:21;;;;;;;36.28;18.52;;;;;;;5.33;100.00;100323.38;4994719;28;20029;-86
2023/12/09 09:59:49;;;;;;;35.40;18.92;;;;;;;5.30;100.00;100310.91;5000903;28;20483;-84
2023/12/09 10:02:16;;;;;;;38.83;20.38;;;;;;;5.41;100.00;100313.38;4996926;28;20045;-85
2023/12/09 10:04:43;;;;;;;39.13;20.33;;;;;;;5.44;100.00;100312.50;5012037;28;20053;-85
2023/12/09 10:07:09;;;;;;;36.00;20.05;;;;;;;5.46;100.00;100309.19;4996782;28;20030;-86
2023/12/09 10:09:35;;;;;;;34.95;19.60;;;;;;;5.46;100.00;100307.13;4981600;28;20168;-86
2023/12/09 10:12:01;;;;;;;42.42;21.05;;;;;;;5.46;100.00;100306.34;4996307;28;20042;-87
2023/12/09 10:14:28;;;;;;;45.33;20.98;;;;;;;5.42;100.00;100300.81;4997341;28;20033;-85
2023/12/09 10:16:56;;;;;;;45.78;22.40;;;;;;;5.43;100.00;100293.91;5028594;28;20109;-83
2023/12/09 10:19:23;;;;;;;47.55;23.13;;;;;;;5.44;100.00;100277.69;5026967;28;20033;-83
2023/12/09 10:21:50;;;;;;;52.55;27.25;;;;;;;5.42;100.00;100280.97;4996721;28;20022;-82
2023/12/09 10:24:18;;;;;;;53.35;26.35;;;;;;;5.47;100.00;100277.56;4995960;28;20034;-83
2023/12/09 10:26:45;;;;;;;54.78;28.63;;;;;;;5.51;100.00;100266.09;4995667;28;20030;-82
2023/12/09 10:29:12;;;;;;;49.92;25.63;;;;;;;5.58;100.00;100271.50;4995386;28;20027;-80
2023/12/09 10:31:46;;;;;;;47.30;24.02;;;;;;;5.67;100.00;100272.38;4995378;28;20029;-82
2023/12/09 10:34:12;;;;;;;45.95;23.50;;;;;;;5.72;100.00;100265.31;4993839;28;20026;-83
2023/12/09 10:36:44;;;;;;;43.25;22.77;;;;;;;5.71;100.00;100267.38;5010210;28;20092;-82
2023/12/09 10:39:24;;;;;;;44.75;22.50;;;;;;;5.76;100.00;100268.81;4986476;28;20038;-82
2023/12/09 10:41:56;;;;;;;39.83;20.27;;;;;;;5.80;100.00;100258.13;4979795;28;20054;-84
2023/12/09 10:44:21;;;;;;;33.58;16.45;;;;;;;5.84;100.00;100267.31;4982576;28;20038;-79
2023/12/09 10:46:48;;;;;;;26.83;14.43;;;;;;;5.79;100.00;100260.19;4992192;28;20030;-81
2023/12/09 10:49:14;;;;;;;25.60;14.20;;;;;;;5.86;100.00;100261.16;4985268;28;20103;-82
2023/12/09 10:51:40;;;;;;;25.80;14.40;;;;;;;5.87;100.00;100263.56;4990502;28;20035;-79
2023/12/09 10:54:07;;;;;;;19.38;12.00;;;;;;;5.81;100.00;100254.84;4998218;28;20030;-87
2023/12/09 10:56:34;;;;;;;17.23;11.45;;;;;;;5.80;100.00;100246.78;5002203;28;20054;-86
2023/12/09 10:59:01;;;;;;;24.75;12.43;;;;;;;5.76;100.00;100254.66;4984775;28;20038;-86
2023/12/09 11:01:28;;;;;;;17.55;11.32;;;;;;;5.71;100.00;100256.03;4986162;28;20022;-87
2023/12/09 11:03:56;;;;;;;20.33;10.88;;;;;;;5.69;100.00;100246.41;4986692;28;20033;-79
2023/12/09 11:06:23;;;;;;;19.73;12.07;;;;;;;5.77;100.00;100248.53;4983900;28;20045;-81
2023/12/09 11:08:49;;;;;;;22.35;12.52;;;;;;;5.77;100.00;100242.06;4998465;28;20038;-82
2023/12/09 11:11:15;;;;;;;19.95;13.27;;;;;;;5.80;100.00;100243.97;4986749;28;20089;-80
2023/12/09 11:13:46;;;;;;;23.75;12.70;;;;;;;5.82;100.00;100230.13;4973288;28;20415;-79